Time;durP1;ratioP1;P1;durP2;ratioP2;P2;SDS_P1;SDS_P2;PMS_P1;PMS_P2;Temp;Humidity;BMP_temperature;BMP_pressure;BME280_temperature;BME280_humidity;BME280_pressure;Samples;Min_cycle;Max_cycle;Signal;HPM_P1;HPM_P2
2024/03/04 00:02:18;;;;;;;41.20;23.92;;;;;;;29.37;76.82;101030.44;5055179;28;66207;-30
2024/03/04 00:04:49;;;;;;;48.28;24.17;;;;;;;29.40;76.47;101040.81;5051412;28;70124;-30
2024/03/04 00:07:19;;;;;;;44.22;23.67;;;;;;;29.44;76.23;101037.72;5053636;28;66061;-30
2024/03/04 00:09:51;;;;;;;50.97;24.27;;;;;;;29.44;77.55;101048.53;5056953;28;69842;-29
2024/03/04 00:12:21;;;;;;;46.40;23.33;;;;;;;29.47;77.13;101042.69;5056570;28;66452;-31
2024/03/04 00:14:53;;;;;;;47.22;22.92;;;;;;;29.49;77.66;101056.84;5051185;28;70043;-30
2024/03/04 00:17:24;;;;;;;50.95;21.67;;;;;;;29.50;78.06;101047.69;5059519;28;64913;-31
2024/03/04 00:19:56;;;;;;;42.55;21.08;;;;;;;29.52;77.02;101051.03;5057963;28;70202;-30
2024/03/04 00:22:27;;;;;;;;;;;;;;;29.44;81.59;101048.53;5057530;28;65751;-30
2024/03/04 00:24:57;;;;;;;38.78;17.95;;;;;;;29.54;78.81;101054.34;5056722;28;69589;-33
2024/03/04 00:27:28;;;;;;;30.13;16.50;;;;;;;29.60;76.90;101059.75;5058178;28;66394;-30
2024/03/04 00:29:59;;;;;;;29.55;15.38;;;;;;;29.63;77.61;101063.94;5054519;28;70821;-30
2024/03/04 00:32:29;;;;;;;29.30;13.57;;;;;;;29.65;77.48;101056.47;5059250;28;66567;-32
2024/03/04 00:35:00;;;;;;;25.52;12.95;;;;;;;29.66;77.46;101060.81;5058190;28;69767;-31
2024/03/04 00:37:31;;;;;;;24.08;13.05;;;;;;;29.66;76.89;101068.13;5056988;28;66240;-30
2024/03/04 00:40:05;;;;;;;25.73;12.55;;;;;;;29.68;76.93;101053.34;5057559;28;70789;-30
2024/03/04 00:42:38;;;;;;;19.98;11.20;;;;;;;29.75;76.49;101070.38;5058969;28;66371;-29
2024/03/04 00:45:09;;;;;;;24.10;12.35;;;;;;;29.74;77.24;101074.13;5057043;28;70479;-30
2024/03/04 00:47:40;;;;;;;21.33;11.70;;;;;;;29.70;77.29;101072.91;5058176;28;66920;-30
2024/03/04 00:50:11;;;;;;;23.17;11.20;;;;;;;29.75;76.46;101064.97;5057295;28;69168;-31
2024/03/04 00:52:42;;;;;;;22.63;10.63;;;;;;;29.79;76.70;101074.34;5057622;28;67029;-29
2024/03/04 00:55:12;;;;;;;21.55;10.40;;;;;;;29.87;75.68;101070.63;5056543;28;69446;-30
2024/03/04 00:57:43;;;;;;;16.73;10.80;;;;;;;29.90;75.28;101074.78;5056357;28;66365;-29
2024/03/04 01:00:14;;;;;;;19.60;10.30;;;;;;;29.91;75.24;101076.44;5059181;28;69923;-30
2024/03/04 01:02:45;;;;;;;17.52;10.02;;;;;;;29.92;75.23;101073.53;5057112;28;66333;-29
2024/03/04 01:05:16;;;;;;;15.65;9.38;;;;;;;29.94;74.99;101087.66;5055178;28;70092;-29
2024/03/04 01:07:47;;;;;;;21.52;9.82;;;;;;;29.97;74.52;101081.81;5057516;28;66719;-29
2024/03/04 01:10:18;;;;;;;19.77;10.25;;;;;;;29.99;75.11;101089.75;5058704;28;70098;-29
2024/03/04 01:12:49;;;;;;;13.00;9.55;;;;;;;30.01;74.48;101087.66;5060428;28;66609;-30
2024/03/04 01:15:20;;;;;;;14.30;9.47;;;;;;;30.04;74.47;101087.25;5062351;28;70416;-30
2024/03/04 01:17:51;;;;;;;16.95;8.98;;;;;;;30.04;74.22;101087.25;5061975;28;66501;-32
2024/03/04 01:20:22;;;;;;;16.70;9.82;;;;;;;30.04;74.37;101092.66;5060399;28;70682;-30
2024/03/04 01:22:53;;;;;;;25.20;9.43;;;;;;;30.04;73.79;101088.06;5061009;28;66201;-32
2024/03/04 01:25:23;;;;;;;19.02;9.98;;;;;;;30.04;74.20;101093.47;5058829;28;70477;-29
2024/03/04 01:27:54;;;;;;;15.25;9.45;;;;;;;30.08;73.80;101099.28;5061381;28;65766;-30
2024/03/04 01:30:25;;;;;;;12.50;9.15;;;;;;;30.12;73.96;101105.13;5061555;28;70102;-30
2024/03/04 01:32:59;;;;;;;13.90;8.98;;;;;;;30.14;73.51;101103.03;5061518;28;66497;-30
2024/03/04 01:35:30;;;;;;;14.70;9.70;;;;;;;30.15;73.67;101110.94;5060850;28;69318;-30
2024/03/04 01:38:01;;;;;;;14.23;9.35;;;;;;;30.19;73.68;101108.66;5061258;28;65360;-30
2024/03/04 01:40:32;;;;;;;17.27;10.67;;;;;;;30.19;73.43;101109.47;5060899;28;69535;-30
2024/03/04 01:43:03;;;;;;;14.18;9.80;;;;;;;30.19;73.64;101105.94;5057949;28;65701;-30
2024/03/04 01:45:34;;;;;;;11.93;10.18;;;;;;;30.20;72.86;101105.75;5060743;28;69656;-30
2024/03/04 01:48:06;;;;;;;14.73;9.88;;;;;;;30.26;72.83;101115.75;5059904;28;66831;-34
2024/03/04 01:50:43;;;;;;;17.02;10.30;;;;;;;30.30;73.49;101128.88;5060904;28;70255;-29
2024/03/04 01:53:14;;;;;;;15.27;10.60;;;;;;;30.28;73.06;101121.78;5059256;28;65452;-30
2024/03/04 01:55:52;;;;;;;11.23;9.05;;;;;;;30.30;72.68;101124.28;5060900;28;70677;-30
2024/03/04 01:58:24;;;;;;;15.35;9.82;;;;;;;30.33;72.90;101123.03;5051947;28;66834;-30
2024/03/04 02:00:56;;;;;;;16.83;9.50;;;;;;;30.16;72.95;101100.97;5060130;28;70369;-30
2024/03/04 02:03:30;;;;;;;12.93;8.77;;;;;;;30.41;72.43;101134.47;5058109;28;66547;-31
2024/03/04 02:06:03;;;;;;;11.73;8.45;;;;;;;30.41;72.25;101125.50;5060061;28;70428;-30
2024/03/04 02:08:35;;;;;;;14.07;8.70;;;;;;;30.47;72.49;101127.38;5043205;28;66623;-30
2024/03/04 02:11:06;;;;;;;11.38;8.75;;;;;;;30.44;72.44;101131.31;5058178;28;70891;-31
2024/03/04 02:13:38;;;;;;;13.15;9.23;;;;;;;30.48;72.23;101127.16;5060666;28;66826;-30
2024/03/04 02:16:09;;;;;;;12.32;8.73;;;;;;;30.54;71.89;101133.59;5061165;28;68889;-31
2024/03/04 02:18:39;;;;;;;11.98;8.73;;;;;;;30.57;72.03;101132.34;5052022;28;65354;-29
2024/03/04 02:21:11;;;;;;;12.88;7.82;;;;;;;30.57;71.79;101118.81;5053289;28;70618;-31
2024/03/04 02:23:42;;;;;;;9.23;8.35;;;;;;;30.61;71.67;101129.00;5052472;28;66279;-30
2024/03/04 02:26:12;;;;;;;14.93;9.30;;;;;;;30.57;71.85;101114.22;5054889;28;68832;-29
2024/03/04 02:28:43;;;;;;;9.15;8.18;;;;;;;30.67;71.66;101135.44;5057234;28;65663;-29
2024/03/04 02:31:14;;;;;;;13.05;8.75;;;;;;;30.69;71.75;101117.94;5053223;28;70829;-30
2024/03/04 02:33:45;;;;;;;9.85;8.05;;;;;;;30.69;71.63;101127.94;5059340;28;66696;-30
2024/03/04 02:36:17;;;;;;;14.77;9.15;;;;;;;30.73;71.51;101119.19;5058031;28;69495;-30
2024/03/04 02:38:48;;;;;;;12.73;8.52;;;;;;;30.78;71.13;101117.69;5063193;28;65882;-30
2024/03/04 02:41:19;;;;;;;8.55;7.65;;;;;;;30.80;71.27;101123.75;5059911;28;69392;-31
2024/03/04 02:43:51;;;;;;;11.80;8.07;;;;;;;30.82;71.26;101110.84;5056723;28;65851;-32
2024/03/04 02:46:21;;;;;;;9.68;7.75;;;;;;;30.86;71.13;101117.47;5060266;28;70086;-32
2024/03/04 02:48:55;;;;;;;8.75;7.88;;;;;;;30.90;71.39;101107.91;5060249;28;68133;-34
2024/03/04 02:51:26;;;;;;;11.13;8.27;;;;;;;30.93;70.78;101113.72;5060413;28;70040;-32
2024/03/04 02:53:57;;;;;;;9.73;7.18;;;;;;;30.92;70.83;101106.66;5060658;28;66167;-31
2024/03/04 02:56:28;;;;;;;17.15;8.75;;;;;;;30.98;70.88;101110.38;5056389;28;69927;-32
2024/03/04 02:58:59;;;;;;;9.25;8.13;;;;;;;31.01;70.66;101104.50;5059290;28;66640;-30
2024/03/04 03:01:29;;;;;;;11.35;8.25;;;;;;;31.03;70.66;101102.41;5055792;28;70408;-31
2024/03/04 03:04:00;;;;;;;9.88;8.50;;;;;;;31.07;70.53;101089.28;5053959;28;65648;-30
2024/03/04 03:06:32;;;;;;;8.90;8.00;;;;;;;31.08;70.37;101089.03;5060054;28;69702;-31
2024/03/04 03:09:04;;;;;;;9.30;8.13;;;;;;;31.09;70.37;101089.84;5059978;28;66246;-30
2024/03/04 03:11:34;;;;;;;8.60;7.63;;;;;;;31.15;70.19;101084.44;5057747;28;70430;-30
2024/03/04 03:14:05;;;;;;;8.95;8.15;;;;;;;31.20;70.04;101077.50;5060162;28;66617;-30
2024/03/04 03:16:36;;;;;;;10.82;8.02;;;;;;;31.23;70.37;101074.34;5058104;28;70139;-30
2024/03/04 03:19:06;;;;;;;12.23;9.02;;;;;;;31.24;70.36;101065.19;5058136;28;66161;-30
2024/03/04 03:21:37;;;;;;;8.68;7.78;;;;;;;31.29;69.93;101068.09;5058741;28;70272;-30
2024/03/04 03:24:08;;;;;;;8.95;8.07;;;;;;;31.31;69.94;101060.53;5059311;28;65912;-30
2024/03/04 03:26:38;;;;;;;11.52;8.10;;;;;;;31.11;70.13;101023.56;5045661;28;70205;-31
2024/03/04 03:29:09;;;;;;;11.07;8.70;;;;;;;31.31;69.58;101049.69;5058650;28;66219;-30
2024/03/04 03:31:40;;;;;;;9.38;8.00;;;;;;;31.35;69.86;101053.66;5049107;28;70152;-32
2024/03/04 03:34:11;;;;;;;10.80;8.30;;;;;;;31.42;69.60;101057.16;5058077;28;66891;-31
2024/03/04 03:36:42;;;;;;;12.97;8.53;;;;;;;31.45;69.75;101055.88;5055628;28;69019;-30
2024/03/04 03:39:14;;;;;;;8.87;8.07;;;;;;;31.48;69.90;101052.75;5048805;28;66040;-30
2024/03/04 03:41:46;;;;;;;8.45;7.78;;;;;;;31.49;69.25;101047.09;5059060;28;71262;-32
2024/03/04 03:44:16;;;;;;;9.05;7.95;;;;;;;31.53;69.73;101042.88;5059959;28;65866;-31
2024/03/04 03:46:47;;;;;;;9.18;8.25;;;;;;;31.56;69.61;101042.44;5059323;28;69092;-29
2024/03/04 03:49:18;;;;;;;8.00;7.32;;;;;;;31.57;69.48;101041.41;5057896;28;66573;-30
2024/03/04 03:51:49;;;;;;;9.98;7.03;;;;;;;31.60;69.48;101038.25;5053686;28;69953;-30
2024/03/04 03:54:19;;;;;;;8.77;7.70;;;;;;;31.64;69.76;101037.81;5052858;28;65933;-29
2024/03/04 03:56:51;;;;;;;8.48;7.65;;;;;;;31.69;69.47;101040.69;5060273;28;69821;-30
2024/03/04 03:59:21;;;;;;;9.00;8.20;;;;;;;31.70;69.29;101028.78;5059913;28;66582;-31
2024/03/04 04:01:52;;;;;;;10.20;8.00;;;;;;;31.75;69.20;101026.22;5057817;28;70177;-30
2024/03/04 04:04:25;;;;;;;9.10;8.30;;;;;;;31.78;69.30;101028.50;5059405;28;65519;-31
2024/03/04 04:06:56;;;;;;;8.32;7.63;;;;;;;31.76;69.28;101019.75;5059316;28;70548;-30
2024/03/04 04:09:26;;;;;;;9.23;8.18;;;;;;;31.82;69.35;101030.56;5057454;28;66325;-30
2024/03/04 04:11:57;;;;;;;8.43;7.60;;;;;;;31.78;68.72;101007.63;5059294;28;70422;-31
2024/03/04 04:14:28;;;;;;;9.95;7.80;;;;;;;31.89;69.09;101013.38;5046532;28;66254;-30
2024/03/04 04:16:59;;;;;;;7.88;7.25;;;;;;;31.92;68.83;101007.53;5057451;28;69892;-31
2024/03/04 04:19:29;;;;;;;10.25;8.52;;;;;;;31.94;68.95;101008.97;5057368;28;65852;-30
2024/03/04 04:22:00;;;;;;;9.07;8.27;;;;;;;31.97;68.82;101005.81;5056962;28;70057;-31
2024/03/04 04:24:31;;;;;;;9.15;8.45;;;;;;;31.98;68.88;100996.63;5057130;28;66945;-30
2024/03/04 04:27:02;;;;;;;8.65;7.80;;;;;;;32.04;69.12;100994.91;5059594;28;70086;-31
2024/03/04 04:29:33;;;;;;;8.88;7.97;;;;;;;32.07;68.84;100996.31;5058881;28;66396;-30
2024/03/04 04:32:04;;;;;;;8.75;7.95;;;;;;;32.09;68.65;100986.06;5058451;28;70120;-30
2024/03/04 04:34:35;;;;;;;9.45;7.95;;;;;;;32.08;68.49;100973.56;5059148;28;66833;-30
2024/03/04 04:37:06;;;;;;;8.68;7.85;;;;;;;32.14;68.67;100972.66;5056012;28;69772;-30
2024/03/04 04:39:40;;;;;;;8.90;8.18;;;;;;;32.18;68.57;100962.97;5058811;28;65450;-30
2024/03/04 04:42:12;;;;;;;9.45;8.40;;;;;;;32.22;68.39;100964.19;5058452;28;70066;-30
2024/03/04 04:44:42;;;;;;;10.55;8.68;;;;;;;32.23;68.58;100960.41;5056196;28;66002;-31
2024/03/04 04:47:13;;;;;;;8.85;8.18;;;;;;;32.28;68.40;100955.13;5056893;28;71228;-30
2024/03/04 04:49:44;;;;;;;9.23;8.15;;;;;;;32.30;68.21;100949.50;5056200;28;65946;-30
2024/03/04 04:52:15;;;;;;;8.63;7.93;;;;;;;32.34;68.35;100946.06;5056477;28;69495;-30
2024/03/04 04:54:46;;;;;;;9.75;8.18;;;;;;;32.38;68.20;100946.47;5057606;28;65801;-31
2024/03/04 04:57:19;;;;;;;15.07;8.27;;;;;;;32.39;68.40;100943.50;5056756;28;70050;-36
2024/03/04 04:59:50;;;;;;;10.85;8.23;;;;;;;32.42;67.84;100940.31;5056598;28;66853;-31
2024/03/04 05:02:21;;;;;;;8.63;7.85;;;;;;;32.45;68.17;100937.16;5057636;28;70200;-34
2024/03/04 05:04:51;;;;;;;8.27;7.63;;;;;;;32.49;68.13;100927.53;5057920;28;65728;-30
2024/03/04 05:07:27;;;;;;;9.38;8.48;;;;;;;32.51;68.11;100923.75;5056536;28;70365;-30
2024/03/04 05:09:57;;;;;;;9.48;8.57;;;;;;;32.56;67.98;100921.19;5057004;28;66700;-31
2024/03/04 05:12:29;;;;;;;8.97;8.20;;;;;;;32.57;68.09;100922.81;5056126;28;70581;-31
2024/03/04 05:14:59;;;;;;;13.50;8.63;;;;;;;32.62;68.11;100920.25;5057477;28;67987;-31
2024/03/04 05:17:31;;;;;;;9.20;8.32;;;;;;;32.61;67.85;100907.75;5056995;28;69850;-32
2024/03/04 05:20:06;;;;;;;9.95;8.93;;;;;;;32.69;67.84;100912.84;5055663;28;67052;-30
2024/03/04 05:22:38;;;;;;;8.50;7.68;;;;;;;32.68;67.81;100906.59;5046183;28;70235;-30
2024/03/04 05:25:09;;;;;;;9.00;8.30;;;;;;;32.70;67.74;100907.16;5055381;28;66804;-30
2024/03/04 05:27:40;;;;;;;8.73;7.95;;;;;;;32.75;67.69;100906.47;5056310;28;70220;-30
2024/03/04 05:30:12;;;;;;;8.87;8.07;;;;;;;32.76;67.79;100897.25;5057224;28;66442;-34
2024/03/04 05:32:43;;;;;;;;;;;;;;;32.77;67.74;100888.06;5058055;28;70553;-30
2024/03/04 05:35:14;;;;;;;8.73;7.90;;;;;;;32.88;67.61;100881.81;5041254;28;66895;-33
2024/03/04 05:37:44;;;;;;;13.90;8.00;;;;;;;32.88;67.59;100878.28;5057655;28;70109;-30
2024/03/04 05:40:15;;;;;;;9.23;7.93;;;;;;;32.88;67.47;100881.81;5057034;28;65714;-33
2024/03/04 05:42:46;;;;;;;8.57;7.87;;;;;;;32.92;67.51;100872.13;5056528;28;70375;-31
2024/03/04 05:45:20;;;;;;;8.65;7.70;;;;;;;32.93;67.43;100868.38;5056602;28;65374;-32
2024/03/04 05:47:51;;;;;;;8.93;8.23;;;;;;;32.96;67.73;100866.22;5055855;28;69823;-32
2024/03/04 05:50:23;;;;;;;10.77;7.97;;;;;;;33.03;67.53;100858.81;5056080;28;66562;-30
2024/03/04 05:52:55;;;;;;;11.82;8.23;;;;;;;33.02;67.49;100855.28;5057401;28;69159;-30
2024/03/04 05:55:26;;;;;;;9.77;8.63;;;;;;;33.07;67.46;100851.84;5055906;28;66459;-31
2024/03/04 05:57:57;;;;;;;8.77;8.00;;;;;;;33.10;67.42;100848.69;5055823;28;70494;-30
2024/03/04 06:00:30;;;;;;;8.93;8.07;;;;;;;33.08;67.20;100829.88;5058778;28;67063;-31
2024/03/04 06:03:02;;;;;;;8.80;8.00;;;;;;;33.16;67.22;100836.84;5057952;28;70113;-31
2024/03/04 06:05:33;;;;;;;9.13;8.15;;;;;;;33.19;67.41;100833.66;5059744;28;66285;-33
2024/03/04 06:08:05;;;;;;;9.73;7.72;;;;;;;33.23;67.27;100831.28;5059523;28;69543;-31
2024/03/04 06:10:36;;;;;;;9.52;8.18;;;;;;;33.24;67.05;100830.22;5058081;28;66957;-35
2024/03/04 06:13:08;;;;;;;9.15;8.07;;;;;;;33.29;67.24;100816.72;5057815;28;69407;-29
2024/03/04 06:15:39;;;;;;;8.65;8.05;;;;;;;33.31;67.26;100807.28;5059230;28;66737;-30
2024/03/04 06:18:11;;;;;;;8.80;8.00;;;;;;;33.35;66.93;100805.75;5060292;28;71602;-31
2024/03/04 06:20:41;;;;;;;8.75;8.05;;;;;;;33.26;67.08;100779.97;5058711;28;66092;-31
2024/03/04 06:23:12;;;;;;;9.32;8.40;;;;;;;33.29;67.21;100770.50;5058083;28;70473;-31
2024/03/04 06:25:43;;;;;;;10.30;8.30;;;;;;;33.37;66.92;100776.41;5055653;28;65590;-30
2024/03/04 06:28:15;;;;;;;8.63;7.93;;;;;;;33.46;66.99;100781.47;5054328;28;69579;-30
2024/03/04 06:30:47;;;;;;;9.57;8.20;;;;;;;33.44;66.92;100779.00;5057974;28;66663;-30
2024/03/04 06:33:18;;;;;;;10.10;8.38;;;;;;;33.51;66.84;100765.25;5057054;28;70466;-31
2024/03/04 06:35:49;;;;;;;8.98;8.18;;;;;;;33.56;67.00;100773.56;5060230;28;65889;-31
2024/03/04 06:38:20;;;;;;;8.77;7.97;;;;;;;33.59;66.86;100767.63;5060580;28;69986;-31
2024/03/04 06:40:51;;;;;;;11.98;8.38;;;;;;;33.61;66.70;100765.50;5060640;28;66763;-29
2024/03/04 06:43:21;;;;;;;9.17;8.23;;;;;;;33.66;66.80;100756.63;5057692;28;71361;-32
2024/03/04 06:45:52;;;;;;;9.77;8.90;;;;;;;33.69;66.72;100751.53;5058725;28;66242;-31
2024/03/04 06:48:23;;;;;;;8.93;8.07;;;;;;;33.73;66.69;100747.22;5060372;28;71498;-30
2024/03/04 06:50:55;;;;;;;11.23;8.65;;;;;;;33.75;66.36;100745.09;5060120;28;65171;-30
2024/03/04 06:53:27;;;;;;;;;;;;;;;33.71;66.44;100748.53;5059277;28;69996;-31
2024/03/04 06:55:58;;;;;;;9.00;8.20;;;;;;;33.86;66.62;100739.88;5059428;28;65805;-31
2024/03/04 06:58:28;;;;;;;8.20;7.60;;;;;;;33.88;66.59;100732.25;5058013;28;69694;-31
2024/03/04 07:00:59;;;;;;;9.70;8.50;;;;;;;33.92;66.49;100730.72;5060112;28;67422;-30
2024/03/04 07:03:30;;;;;;;8.70;8.00;;;;;;;33.96;66.30;100723.69;5059372;28;71298;-31
2024/03/04 07:06:01;;;;;;;10.27;8.27;;;;;;;33.99;66.27;100723.22;5057013;28;66626;-30
2024/03/04 07:08:32;;;;;;;8.45;7.90;;;;;;;34.04;66.47;100720.56;5058257;28;70045;-31
2024/03/04 07:11:04;;;;;;;9.87;8.37;;;;;;;34.07;66.42;100720.13;5058054;28;65245;-31
2024/03/04 07:13:37;;;;;;;8.68;8.05;;;;;;;34.12;66.17;100722.94;5051932;28;70376;-30
2024/03/04 07:16:08;;;;;;;9.70;8.70;;;;;;;34.17;66.34;100716.75;5053596;28;66036;-32
2024/03/04 07:18:39;;;;;;;9.65;8.68;;;;;;;34.18;66.34;100711.03;5058320;28;70228;-31
2024/03/04 07:21:17;;;;;;;8.65;7.90;;;;;;;34.15;66.20;100699.84;5049079;28;65689;-32
2024/03/04 07:23:48;;;;;;;8.60;7.90;;;;;;;34.29;66.00;100706.59;5059204;28;70175;-31
2024/03/04 07:26:21;;;;;;;9.38;8.45;;;;;;;34.32;66.19;100708.00;5059911;28;65674;-31
2024/03/04 07:28:52;;;;;;;8.95;8.25;;;;;;;34.37;66.15;100713.53;5058716;28;69322;-31
2024/03/04 07:31:24;;;;;;;9.73;8.90;;;;;;;34.40;65.95;100713.84;5059628;28;66229;-31
2024/03/04 07:33:56;;;;;;;9.32;8.52;;;;;;;34.48;66.34;100701.72;5057571;28;69527;-31
2024/03/04 07:36:26;;;;;;;14.32;9.25;;;;;;;34.51;66.19;100714.84;5057012;28;65343;-32
2024/03/04 07:38:57;;;;;;;10.07;8.63;;;;;;;34.54;66.09;100706.16;5062529;28;70285;-31
2024/03/04 07:41:28;;;;;;;9.63;8.67;;;;;;;34.57;66.27;100705.69;5054876;28;65760;-32
2024/03/04 07:43:59;;;;;;;9.73;8.88;;;;;;;34.64;65.79;100713.72;5059198;28;70449;-31
2024/03/04 07:46:31;;;;;;;11.70;8.70;;;;;;;34.67;65.81;100719.47;5060122;28;66085;-29
2024/03/04 07:49:02;;;;;;;9.90;9.02;;;;;;;34.73;65.46;100716.84;5057223;28;69174;-31
2024/03/04 07:51:42;;;;;;;11.77;8.87;;;;;;;34.73;65.73;100705.94;5054283;28;66562;-30
2024/03/04 07:54:16;;;;;;;9.88;9.05;;;;;;;34.79;65.42;100711.19;5057020;28;70224;-30
2024/03/04 07:56:47;;;;;;;10.30;9.40;;;;;;;34.85;65.81;100709.34;5059074;28;66923;-32
2024/03/04 07:59:19;;;;;;;9.45;8.65;;;;;;;34.90;65.50;100706.72;5042087;28;69916;-30
2024/03/04 08:01:50;;;;;;;10.43;9.33;;;;;;;34.94;65.75;100699.69;5056709;28;66930;-30
2024/03/04 08:04:21;;;;;;;10.80;9.75;;;;;;;34.97;65.14;100701.91;5057336;28;70531;-32
2024/03/04 08:06:52;;;;;;;10.17;9.27;;;;;;;35.02;65.23;100699.25;5058468;28;65199;-31
2024/03/04 08:09:23;;;;;;;10.18;9.10;;;;;;;35.04;65.23;100699.81;5054746;28;69546;-31
2024/03/04 08:11:54;;;;;;;9.45;8.77;;;;;;;35.08;64.89;100698.25;5058511;28;65932;-31
2024/03/04 08:14:25;;;;;;;11.57;9.20;;;;;;;35.15;64.79;100692.59;5057339;28;72057;-36
2024/03/04 08:16:56;;;;;;;11.73;9.50;;;;;;;35.19;64.82;100687.47;5057661;28;66158;-30
2024/03/04 08:19:28;;;;;;;10.90;9.88;;;;;;;35.22;64.75;100686.97;5057939;28;70340;-34
2024/03/04 08:21:58;;;;;;;;;;;;;;;35.16;64.37;100687.97;5057724;28;65803;-31
2024/03/04 08:24:29;;;;;;;9.95;8.98;;;;;;;35.32;64.97;100681.63;5059042;28;69908;-31
2024/03/04 08:27:00;;;;;;;13.25;9.57;;;;;;;35.33;65.08;100683.28;5056937;28;66010;-31
2024/03/04 08:29:31;;;;;;;9.82;8.93;;;;;;;35.35;65.14;100675.66;5058312;28;71407;-29
2024/03/04 08:32:04;;;;;;;10.00;9.05;;;;;;;35.42;64.74;100681.75;5057511;28;66350;-31
2024/03/04 08:34:35;;;;;;;10.93;9.52;;;;;;;35.47;64.29;100687.25;5056166;28;69848;-31
2024/03/04 08:37:06;;;;;;;10.35;9.25;;;;;;;35.53;64.87;100696.31;5056516;28;66896;-31
2024/03/04 08:39:37;;;;;;;9.40;8.65;;;;;;;35.56;64.36;100693.09;5057183;28;69488;-33
2024/03/04 08:42:08;;;;;;;11.85;10.13;;;;;;;35.58;64.20;100697.22;5058154;28;66118;-31
2024/03/04 08:44:39;;;;;;;14.48;9.82;;;;;;;35.61;64.50;100695.91;5056853;28;69468;-30
2024/03/04 08:47:10;;;;;;;9.52;8.63;;;;;;;35.60;64.77;100685.22;5048523;28;66380;-31
2024/03/04 08:49:41;;;;;;;11.65;9.77;;;;;;;35.69;64.14;100694.59;5057209;28;70994;-32
2024/03/04 08:52:11;;;;;;;10.17;9.43;;;;;;;35.72;64.30;100703.09;5054942;28;65649;-31
2024/03/04 08:54:43;;;;;;;11.20;10.10;;;;;;;35.74;64.76;100698.19;5055107;28;69901;-31
2024/03/04 08:57:14;;;;;;;11.52;9.50;;;;;;;35.74;64.11;100689.19;5056875;28;66780;-33
2024/03/04 08:59:45;;;;;;;10.75;9.80;;;;;;;35.80;64.66;100701.78;5057219;28;71563;-31
2024/03/04 09:02:15;;;;;;;10.90;10.00;;;;;;;35.84;64.05;100705.66;5055954;28;64739;-31
2024/03/04 09:04:48;;;;;;;10.40;9.52;;;;;;;35.89;63.93;100704.91;5058044;28;69920;-31
2024/03/04 09:07:19;;;;;;;10.88;9.85;;;;;;;35.91;63.83;100700.84;5057466;28;65922;-31
2024/03/04 09:09:52;;;;;;;11.05;10.20;;;;;;;35.91;64.54;100706.28;5056238;28;70803;-31
2024/03/04 09:12:25;;;;;;;12.10;10.95;;;;;;;35.96;64.33;100714.50;5054277;28;66327;-31
2024/03/04 09:14:57;;;;;;;10.32;9.43;;;;;;;36.00;64.39;100715.66;5055784;28;70373;-32
2024/03/04 09:17:28;;;;;;;;;;;;;;;35.95;63.81;100712.88;5055133;28;65460;-31
2024/03/04 09:19:58;;;;;;;12.93;11.10;;;;;;;36.02;64.04;100718.94;5056538;28;69609;-32
2024/03/04 09:22:29;;;;;;;14.10;12.00;;;;;;;36.01;64.63;100722.75;5055001;28;66051;-32
2024/03/04 09:25:02;;;;;;;22.00;13.27;;;;;;;36.00;64.52;100712.91;5052074;28;69745;-31
2024/03/04 09:27:36;;;;;;;17.77;13.23;;;;;;;35.84;64.26;100694.75;5055550;28;66785;-31
2024/03/04 09:30:07;;;;;;;21.52;13.35;;;;;;;35.99;63.95;100722.16;5052452;28;70390;-31
2024/03/04 09:32:38;;;;;;;18.00;13.93;;;;;;;36.03;63.95;100717.84;5050572;28;65570;-31
2024/03/04 09:35:11;;;;;;;16.55;13.25;;;;;;;35.96;64.27;100730.88;5059677;28;69946;-30
2024/03/04 09:37:44;;;;;;;16.70;13.90;;;;;;;36.08;63.89;100727.19;5060436;28;66828;-32
2024/03/04 09:40:16;;;;;;;19.20;13.27;;;;;;;36.05;64.01;100727.69;5057277;28;70675;-33
2024/03/04 09:42:48;;;;;;;;;;;;;;;36.00;63.88;100742.13;5061016;28;66054;-32
2024/03/04 09:45:19;;;;;;;20.77;14.07;;;;;;;36.01;63.97;100739.13;5060681;28;69814;-31
2024/03/04 09:47:55;;;;;;;21.58;13.70;;;;;;;36.07;64.12;100741.94;5059639;28;65837;-32
2024/03/04 09:50:26;;;;;;;21.33;14.27;;;;;;;35.98;64.02;100734.19;5061706;28;70944;-32
2024/03/04 09:53:01;;;;;;;17.83;13.68;;;;;;;36.03;64.15;100745.16;5059018;28;65876;-32
2024/03/04 09:55:32;;;;;;;17.90;14.70;;;;;;;36.02;64.50;100735.31;5060466;28;70728;-31
2024/03/04 09:58:04;;;;;;;24.80;14.80;;;;;;;35.99;64.77;100735.00;5060325;28;67270;-32
2024/03/04 10:00:37;;;;;;;15.65;14.05;;;;;;;36.04;64.65;100737.78;5060094;28;70635;-31
2024/03/04 10:03:12;;;;;;;17.48;14.60;;;;;;;35.95;64.30;100733.88;5061267;28;65912;-31
2024/03/04 10:05:45;;;;;;;23.83;15.27;;;;;;;35.98;64.46;100734.19;5060638;28;70290;-31
2024/03/04 10:08:16;;;;;;;19.88;15.45;;;;;;;36.00;64.47;100737.47;5060747;28;66133;-31
2024/03/04 10:10:51;;;;;;;25.50;16.90;;;;;;;35.97;65.13;100740.72;5061113;28;70348;-31
2024/03/04 10:13:22;;;;;;;19.83;16.42;;;;;;;35.91;64.81;100741.78;5058114;28;66506;-31
2024/03/04 10:15:53;;;;;;;18.52;15.52;;;;;;;35.90;65.34;100742.84;5059772;28;70255;-31
2024/03/04 10:18:24;;;;;;;;;;;;;;;35.84;65.53;100748.50;5044253;28;65652;-31
2024/03/04 10:20:57;;;;;;;18.23;15.98;;;;;;;35.91;65.22;100741.78;5059293;28;69894;-30
2024/03/04 10:23:28;;;;;;;19.52;16.17;;;;;;;35.86;64.78;100744.44;5058001;28;65915;-31
2024/03/04 10:26:10;;;;;;;17.92;15.35;;;;;;;35.81;65.22;100755.31;5060451;28;70111;-32
2024/03/04 10:28:45;;;;;;;17.52;15.68;;;;;;;35.80;65.40;100750.91;5057943;28;66136;-31
2024/03/04 10:31:16;;;;;;;19.20;15.88;;;;;;;35.78;65.09;100755.81;5060539;28;70273;-31
2024/03/04 10:33:46;;;;;;;17.98;16.20;;;;;;;35.74;64.91;100760.94;5060471;28;66721;-31
2024/03/04 10:36:21;;;;;;;20.58;16.10;;;;;;;35.39;64.38;100698.63;5060125;28;70006;-31
2024/03/04 10:38:54;;;;;;;21.05;16.05;;;;;;;35.64;64.48;100758.13;5052259;28;65832;-31
2024/03/04 10:41:30;;;;;;;17.13;15.30;;;;;;;35.62;64.99;100757.56;5057584;28;70036;-32
2024/03/04 10:44:02;;;;;;;18.73;16.60;;;;;;;35.62;64.29;100756.75;5061169;28;66622;-31
2024/03/04 10:46:34;;;;;;;28.45;22.45;;;;;;;35.57;64.60;100766.50;5058873;28;70181;-31
2024/03/04 10:49:07;;;;;;;38.42;27.17;;;;;;;35.53;64.88;100762.63;5055613;28;66238;-33
2024/03/04 10:51:38;;;;;;;46.10;28.40;;;;;;;35.39;65.29;100747.72;5058852;28;69706;-31
2024/03/04 10:54:11;;;;;;;37.58;27.45;;;;;;;35.47;65.53;100766.38;5057491;28;66478;-33
2024/03/04 10:56:56;;;;;;;38.70;26.75;;;;;;;35.42;65.19;100766.31;5060066;28;69916;-31
2024/03/04 10:59:39;;;;;;;40.15;25.67;;;;;;;35.37;65.46;100766.22;5058582;28;65666;-31
2024/03/04 11:02:18;;;;;;;39.03;24.55;;;;;;;35.35;65.75;100752.88;5056083;28;69468;-31
2024/03/04 11:04:54;;;;;;;38.85;24.25;;;;;;;35.21;66.06;100745.31;5058663;28;65607;-32
2024/03/04 11:07:34;;;;;;;33.58;22.27;;;;;;;35.01;66.85;100749.38;5056730;28;70162;-31
2024/03/04 11:10:13;;;;;;;31.50;21.75;;;;;;;35.22;66.95;100769.59;5051928;28;65674;-31
2024/03/04 11:12:56;;;;;;;37.60;21.33;;;;;;;34.96;66.98;100753.94;5047152;28;70122;-31
2024/03/04 11:15:31;;;;;;;28.30;19.30;;;;;;;35.07;67.16;100770.19;5053290;28;66682;-31
2024/03/04 11:18:07;;;;;;;25.83;18.98;;;;;;;34.85;67.18;100742.06;5058385;28;69200;-30
2024/03/04 11:20:42;;;;;;;29.20;17.45;;;;;;;34.97;67.62;100775.50;5059328;28;65700;-31
2024/03/04 11:23:14;;;;;;;20.42;16.13;;;;;;;34.75;67.86;100741.94;5056784;28;68835;-31
2024/03/04 11:25:46;;;;;;;20.38;17.23;;;;;;;34.95;67.64;100774.91;5057865;28;64574;-31
2024/03/04 11:28:19;;;;;;;27.08;17.40;;;;;;;34.82;67.30;100761.63;5058941;28;70390;-30
2024/03/04 11:30:51;;;;;;;22.48;17.20;;;;;;;34.82;68.08;100780.72;5056649;28;65566;-30
2024/03/04 11:33:42;;;;;;;20.85;16.92;;;;;;;34.58;69.14;100770.00;5059700;28;71304;-30
2024/03/04 11:36:16;;;;;;;20.88;16.80;;;;;;;34.68;68.46;100786.50;5056272;28;66382;-32
2024/03/04 11:38:48;;;;;;;20.90;16.90;;;;;;;34.68;68.64;100788.41;5060518;28;70178;-31
2024/03/04 11:41:51;;;;;;;21.90;17.00;;;;;;;34.63;69.06;100794.63;5056628;28;65982;-31